Time;durP1;ratioP1;P1;durP2;ratioP2;P2;SDS_P1;SDS_P2;PMS_P1;PMS_P2;Temp;Humidity;BMP_temperature;BMP_pressure;BME280_temperature;BME280_humidity;BME280_pressure;Samples;Min_cycle;Max_cycle;Signal;HPM_P1;HPM_P2
2021/03/15 00:01:09;;;;;;;43.60;6.35;;;;;;;10.48;100.00;102342.94;5070749;28;20045;-70
2021/03/15 00:03:36;;;;;;;37.90;5.03;;;;;;;10.48;100.00;102342.94;5070487;28;20064;-71
2021/03/15 00:06:03;;;;;;;28.45;4.68;;;;;;;10.48;100.00;102331.16;5070617;28;20064;-65
2021/03/15 00:08:29;;;;;;;26.60;5.18;;;;;;;10.48;100.00;102340.19;5070724;28;20046;-69
2021/03/15 00:10:55;;;;;;;30.75;7.15;;;;;;;10.49;100.00;102325.50;5070385;28;20131;-67
2021/03/15 00:13:22;;;;;;;30.00;5.03;;;;;;;10.52;100.00;102343.34;5070558;28;20557;-68
2021/03/15 00:15:49;;;;;;;29.90;4.55;;;;;;;10.52;100.00;102319.59;5070468;28;20036;-67
2021/03/15 00:18:16;;;;;;;37.30;6.38;;;;;;;10.53;100.00;102318.56;5070636;28;20040;-71
2021/03/15 00:20:42;;;;;;;36.97;6.03;;;;;;;10.56;100.00;102318.16;5070602;28;20036;-65
2021/03/15 00:23:08;;;;;;;28.05;5.25;;;;;;;10.57;100.00;102330.75;5070335;28;20093;-69
2021/03/15 00:25:33;;;;;;;28.90;5.13;;;;;;;10.58;100.00;102316.03;5070495;28;20064;-68
2021/03/15 00:27:59;;;;;;;39.92;5.57;;;;;;;10.58;100.00;102301.53;5052401;28;20127;-65
2021/03/15 00:30:25;;;;;;;30.42;5.15;;;;;;;10.58;100.00;102296.06;5070385;28;20029;-69
2021/03/15 00:32:52;;;;;;;24.25;4.60;;;;;;;10.60;100.00;102315.03;5070294;28;20442;-68
2021/03/15 00:35:18;;;;;;;33.92;5.63;;;;;;;10.60;100.00;102306.84;5070420;28;20041;-70
2021/03/15 00:37:45;;;;;;;24.77;5.10;;;;;;;10.60;100.00;102313.13;5070340;28;20029;-65
2021/03/15 00:40:13;;;;;;;33.42;5.05;;;;;;;10.60;100.00;102299.47;5070263;28;20488;-67
2021/03/15 00:42:50;;;;;;;32.65;4.82;;;;;;;10.63;100.00;102306.41;5070195;28;20112;-64
2021/03/15 00:45:20;;;;;;;24.77;3.72;;;;;;;10.64;100.00;102308.09;5070267;28;20033;-68
2021/03/15 00:47:46;;;;;;;26.20;3.50;;;;;;;10.63;100.00;102306.41;5070343;28;20028;-67
2021/03/15 00:50:39;;;;;;;26.58;4.47;;;;;;;10.62;100.00;102291.06;5070548;28;20060;-66
2021/03/15 00:53:05;;;;;;;25.45;3.97;;;;;;;10.61;100.00;102303.03;5070181;28;20556;-69
2021/03/15 00:55:32;;;;;;;22.42;4.15;;;;;;;10.58;100.00;102299.66;5070169;28;20047;-68
2021/03/15 00:57:58;;;;;;;23.23;3.45;;;;;;;10.58;100.00;102291.44;5070234;28;20398;-65
2021/03/15 01:00:27;;;;;;;21.08;2.88;;;;;;;10.58;100.00;102299.66;5070189;28;20048;-70
2021/03/15 01:02:53;;;;;;;24.65;3.72;;;;;;;10.57;100.00;102291.66;5069884;28;20028;-67
2021/03/15 01:05:26;;;;;;;20.88;3.65;;;;;;;10.57;100.00;102308.06;5070006;28;20067;-67
2021/03/15 01:07:52;;;;;;;14.52;2.50;;;;;;;10.55;100.00;102302.81;5073491;28;20033;-67
2021/03/15 01:10:21;;;;;;;18.35;3.78;;;;;;;10.56;100.00;102296.28;5073518;28;20453;-66
2021/03/15 01:12:47;;;;;;;23.92;3.22;;;;;;;10.56;100.00;102309.94;5073531;28;20028;-68
2021/03/15 01:15:13;;;;;;;24.40;3.78;;;;;;;10.54;100.00;102309.31;5073518;28;20032;-66
2021/03/15 01:17:39;;;;;;;21.98;3.90;;;;;;;10.54;100.00;102319.41;5073623;28;20032;-68
2021/03/15 01:20:08;;;;;;;16.67;3.85;;;;;;;10.54;100.00;102306.59;5073519;28;20506;-69
2021/03/15 01:22:34;;;;;;;21.90;3.22;;;;;;;10.52;100.00;102305.94;5073490;28;20376;-69
2021/03/15 01:24:59;;;;;;;19.85;4.25;;;;;;;10.52;100.00;102305.94;5073378;28;20048;-66
2021/03/15 01:27:25;;;;;;;18.63;3.25;;;;;;;10.51;100.00;102312.47;5073382;28;20033;-67
2021/03/15 01:29:51;;;;;;;17.92;3.05;;;;;;;10.52;100.00;102316.88;5073272;28;20494;-67
2021/03/15 01:32:17;;;;;;;21.92;4.63;;;;;;;10.52;100.00;102316.88;5073230;28;20542;-70
2021/03/15 01:34:43;;;;;;;26.13;4.28;;;;;;;10.52;100.00;102322.34;5073203;28;20123;-70
2021/03/15 01:37:09;;;;;;;21.60;2.58;;;;;;;10.52;100.00;102338.72;5073202;28;20044;-68
2021/03/15 01:39:34;;;;;;;21.50;3.85;;;;;;;10.52;100.00;102346.94;5073334;28;20466;-67
2021/03/15 01:42:00;;;;;;;19.80;3.90;;;;;;;10.52;100.00;102336.00;5073118;28;20098;-68
2021/03/15 01:44:26;;;;;;;17.65;2.65;;;;;;;10.53;100.00;102339.56;5055081;28;20040;-66
2021/03/15 01:46:52;;;;;;;20.40;3.55;;;;;;;10.52;100.00;102333.28;5072913;28;20413;-68
2021/03/15 01:49:17;;;;;;;18.40;3.70;;;;;;;10.50;100.00;102335.38;5073088;28;20044;-70
2021/03/15 01:51:44;;;;;;;20.38;3.65;;;;;;;10.49;100.00;102314.56;5072848;28;20037;-69
2021/03/15 01:54:12;;;;;;;16.92;3.38;;;;;;;10.49;100.00;102333.69;5054756;28;20543;-65
2021/03/15 01:56:38;;;;;;;17.85;3.20;;;;;;;10.49;100.00;102333.69;5072936;28;20479;-67
2021/03/15 01:59:03;;;;;;;18.77;2.88;;;;;;;10.48;100.00;102334.72;5072832;28;20036;-69
2021/03/15 02:01:29;;;;;;;24.98;3.17;;;;;;;10.47;100.00;102346.72;5072730;28;20044;-67
2021/03/15 02:03:55;;;;;;;23.92;3.45;;;;;;;10.47;100.00;102334.94;5072548;28;20082;-67
2021/03/15 02:06:21;;;;;;;16.85;3.45;;;;;;;10.46;100.00;102345.03;5072713;28;20771;-68
2021/03/15 02:08:47;;;;;;;12.80;2.60;;;;;;;10.47;100.00;102345.88;5072673;28;20036;-65
2021/03/15 02:11:25;;;;;;;21.10;2.55;;;;;;;10.46;100.00;102345.03;5072289;28;20048;-68
2021/03/15 02:13:57;;;;;;;16.27;3.33;;;;;;;10.44;100.00;102336.19;5072554;28;20543;-65
2021/03/15 02:16:32;;;;;;;22.27;3.33;;;;;;;10.43;100.00;102350.06;5072493;28;20475;-68
2021/03/15 02:19:12;;;;;;;20.08;3.92;;;;;;;10.40;100.00;102345.81;5053833;28;20033;-68
2021/03/15 02:22:06;;;;;;;17.27;3.65;;;;;;;10.40;100.00;102351.28;5072708;28;20042;-71
2021/03/15 02:24:42;;;;;;;21.33;3.60;;;;;;;10.41;100.00;102363.06;5072513;28;20036;-70
2021/03/15 02:27:39;;;;;;;19.45;2.88;;;;;;;10.38;100.00;102356.13;5072644;28;20037;-67
2021/03/15 02:30:43;;;;;;;24.50;4.25;;;;;;;10.39;100.00;102365.16;5072533;28;20032;-69
2021/03/15 02:33:27;;;;;;;17.90;4.75;;;;;;;10.37;100.00;102361.78;5072195;28;20120;-66
2021/03/15 02:35:57;;;;;;;37.63;4.45;;;;;;;10.36;100.00;102366.41;5072146;28;20431;-65
2021/03/15 02:38:25;;;;;;;15.52;3.15;;;;;;;10.36;100.00;102365.56;5072158;28;20485;-68
2021/03/15 02:40:56;;;;;;;25.27;4.15;;;;;;;10.36;100.00;102360.09;5071883;28;20127;-70
2021/03/15 02:43:29;;;;;;;14.10;3.10;;;;;;;10.36;100.00;102366.41;5071800;28;20069;-66
2021/03/15 02:46:03;;;;;;;17.52;3.97;;;;;;;10.34;100.00;102368.50;5071919;28;20545;-64
2021/03/15 02:48:34;;;;;;;14.88;3.08;;;;;;;10.34;100.00;102363.03;5071860;28;20041;-67
2021/03/15 02:51:00;;;;;;;16.27;3.97;;;;;;;10.34;100.00;102367.66;5071997;28;20390;-68
2021/03/15 02:53:28;;;;;;;18.05;2.97;;;;;;;10.32;100.00;102365.13;5071716;28;20029;-70
2021/03/15 02:56:00;;;;;;;25.60;4.22;;;;;;;10.32;100.00;102367.88;5071589;28;20131;-67
2021/03/15 02:58:27;;;;;;;22.98;3.72;;;;;;;10.31;100.00;102363.47;5071612;28;20036;-66
2021/03/15 03:00:53;;;;;;;19.65;3.38;;;;;;;10.30;100.00;102355.47;5071688;28;20036;-66
2021/03/15 03:14:10;;;;;;;20.33;3.53;;;;;;;10.24;100.00;102340.75;5064579;28;19961;-68
2021/03/15 03:16:38;;;;;;;26.38;3.65;;;;;;;10.24;100.00;102351.66;5071371;28;20036;-64
2021/03/15 03:19:08;;;;;;;24.98;4.60;;;;;;;10.23;100.00;102358.16;5071339;28;20494;-70
2021/03/15 03:21:35;;;;;;;18.02;3.42;;;;;;;10.20;100.00;102358.53;5071403;28;20471;-66
2021/03/15 03:24:03;;;;;;;25.92;4.20;;;;;;;10.19;100.00;102365.03;5070935;28;20040;-65
2021/03/15 03:26:30;;;;;;;18.85;4.20;;;;;;;10.18;100.00;102357.88;5071265;28;20032;-66
2021/03/15 03:28:58;;;;;;;21.25;3.42;;;;;;;10.18;100.00;102352.44;5071030;28;20036;-67
2021/03/15 03:31:27;;;;;;;19.10;3.35;;;;;;;10.16;100.00;102354.53;5071120;28;20355;-67
2021/03/15 03:33:54;;;;;;;19.25;3.90;;;;;;;10.15;100.00;102352.84;5071001;28;20043;-69
2021/03/15 03:36:20;;;;;;;23.02;4.13;;;;;;;10.15;100.00;102364.59;5070856;28;20094;-67
2021/03/15 03:38:46;;;;;;;22.40;4.07;;;;;;;10.15;100.00;102350.09;5071082;28;20028;-64
2021/03/15 03:41:12;;;;;;;19.30;4.63;;;;;;;10.14;100.00;102370.28;5070979;28;20071;-68
2021/03/15 03:43:38;;;;;;;22.88;4.25;;;;;;;10.13;100.00;102360.41;5070931;28;20049;-68
2021/03/15 03:46:06;;;;;;;20.70;3.25;;;;;;;10.12;100.00;102358.72;5070870;28;20126;-67
2021/03/15 03:48:34;;;;;;;31.92;4.43;;;;;;;10.11;100.00;102362.50;5052940;28;20123;-71
2021/03/15 03:51:00;;;;;;;26.27;4.85;;;;;;;10.08;100.00;102357.44;5070911;28;20082;-66
2021/03/15 03:53:49;;;;;;;25.10;3.38;;;;;;;10.07;100.00;102350.28;5070620;28;20032;-66
2021/03/15 03:56:27;;;;;;;19.38;3.60;;;;;;;10.07;100.00;102350.28;5070799;28;20032;-66
2021/03/15 03:58:55;;;;;;;26.05;3.67;;;;;;;10.06;100.00;102349.41;5070876;28;20131;-68
2021/03/15 04:01:41;;;;;;;24.20;3.78;;;;;;;10.05;100.00;102346.91;5070650;28;20045;-70
2021/03/15 04:04:10;;;;;;;26.15;4.00;;;;;;;10.04;100.00;102362.44;5070601;28;20032;-66
2021/03/15 04:06:37;;;;;;;17.25;4.43;;;;;;;10.01;100.00;102359.25;5070749;28;20056;-65
2021/03/15 04:09:09;;;;;;;20.95;3.42;;;;;;;9.96;100.00;102366.19;5070681;28;20032;-67
2021/03/15 04:11:39;;;;;;;29.45;5.22;;;;;;;9.94;100.00;102368.28;5070613;28;20070;-69
2021/03/15 04:14:07;;;;;;;30.60;5.38;;;;;;;9.92;100.00;102380.44;5070390;28;20077;-67
2021/03/15 04:16:39;;;;;;;25.67;4.80;;;;;;;9.90;100.00;102377.91;5070641;28;20083;-70
2021/03/15 04:19:06;;;;;;;31.17;4.50;;;;;;;9.89;100.00;102395.34;5070565;28;20078;-66
2021/03/15 04:21:34;;;;;;;29.10;5.28;;;;;;;9.88;100.00;102395.50;5070598;28;20043;-69
2021/03/15 04:24:01;;;;;;;21.42;5.57;;;;;;;9.89;100.00;102397.19;5070447;28;20038;-64
2021/03/15 04:26:30;;;;;;;21.90;4.15;;;;;;;9.87;100.00;102405.56;5070361;28;20394;-66
2021/03/15 04:28:57;;;;;;;16.63;4.60;;;;;;;9.88;100.00;102406.41;5070456;28;20124;-67
2021/03/15 04:31:26;;;;;;;22.27;3.92;;;;;;;9.86;100.00;102401.16;5070501;28;20105;-67
2021/03/15 04:33:53;;;;;;;18.20;3.17;;;;;;;9.87;100.00;102404.75;5070349;28;20040;-67
2021/03/15 04:36:19;;;;;;;20.77;4.25;;;;;;;9.86;100.00;102408.50;5070408;28;20039;-66
2021/03/15 04:38:45;;;;;;;26.92;5.18;;;;;;;9.85;100.00;102407.66;5070450;28;20055;-66
2021/03/15 04:41:11;;;;;;;20.80;4.68;;;;;;;9.86;100.00;102420.28;5070991;28;20097;-67
2021/03/15 04:43:38;;;;;;;21.27;4.63;;;;;;;9.86;100.00;102406.63;5074027;28;20497;-66
2021/03/15 04:46:06;;;;;;;25.75;4.30;;;;;;;9.89;100.00;102419.03;5074055;28;20046;-65
2021/03/15 04:48:33;;;;;;;22.73;3.97;;;;;;;9.87;100.00;102413.75;5074116;28;20040;-66
2021/03/15 04:51:01;;;;;;;21.17;3.95;;;;;;;9.89;100.00;102424.47;5074636;28;20104;-66
2021/03/15 04:53:28;;;;;;;27.75;4.30;;;;;;;9.88;100.00;102429.09;5073936;28;20417;-70
2021/03/15 04:56:00;;;;;;;22.08;4.07;;;;;;;9.88;100.00;102428.25;5073940;28;20078;-68
2021/03/15 04:58:29;;;;;;;20.90;4.13;;;;;;;9.88;100.00;102428.25;5073716;28;20060;-68
2021/03/15 05:00:57;;;;;;;26.45;4.55;;;;;;;9.88;100.00;102440.00;5074165;28;20040;-67
2021/03/15 05:03:24;;;;;;;27.73;4.57;;;;;;;9.86;100.00;102431.19;5073710;28;20109;-68
2021/03/15 05:05:52;;;;;;;26.23;5.65;;;;;;;9.89;100.00;102441.72;5073750;28;20047;-67
2021/03/15 05:08:28;;;;;;;23.90;5.15;;;;;;;9.86;100.00;102433.91;5073791;28;20425;-69
2021/03/15 05:10:55;;;;;;;28.27;4.45;;;;;;;9.89;100.00;102447.19;5073729;28;20451;-68
2021/03/15 05:13:22;;;;;;;25.73;3.95;;;;;;;9.89;100.00;102447.19;5073507;28;20068;-66
2021/03/15 05:15:49;;;;;;;17.95;3.90;;;;;;;9.90;100.00;102448.88;5073568;28;20114;-68
2021/03/15 05:18:17;;;;;;;25.05;5.32;;;;;;;9.91;100.00;102445.09;5073562;28;20072;-68
2021/03/15 05:20:45;;;;;;;22.17;3.95;;;;;;;9.90;100.00;102448.88;5073680;28;20040;-69
2021/03/15 05:23:11;;;;;;;20.67;3.70;;;;;;;9.92;100.00;102456.88;5073373;28;20037;-69
2021/03/15 05:25:39;;;;;;;22.55;4.32;;;;;;;9.92;100.00;102459.59;5073513;28;20490;-67
2021/03/15 05:28:07;;;;;;;31.33;4.72;;;;;;;9.92;100.00;102457.69;5073481;28;20154;-66
2021/03/15 05:30:37;;;;;;;24.25;3.67;;;;;;;9.93;100.00;102453.09;5073416;28;20433;-66
2021/03/15 05:33:05;;;;;;;19.98;3.60;;;;;;;9.93;100.00;102462.13;5073193;28;20024;-69
2021/03/15 05:35:31;;;;;;;25.58;3.92;;;;;;;9.94;100.00;102466.53;5073253;28;20028;-65
2021/03/15 05:37:59;;;;;;;20.95;3.67;;;;;;;9.94;100.00;102472.00;5073378;28;20060;-65
2021/03/15 05:40:25;;;;;;;26.05;3.78;;;;;;;9.96;100.00;102478.09;5073250;28;20028;-68
2021/03/15 05:43:24;;;;;;;23.88;3.55;;;;;;;9.94;100.00;102477.44;5072997;28;20037;-68
2021/03/15 05:46:02;;;;;;;26.50;4.82;;;;;;;9.95;100.00;102483.75;5073606;28;20525;-70
2021/03/15 05:49:12;;;;;;;27.63;3.70;;;;;;;9.95;100.00;102479.13;5073062;28;20082;-66
2021/03/15 05:52:06;;;;;;;17.17;2.92;;;;;;;9.95;100.00;102486.50;5061547;28;20044;-67
2021/03/15 05:54:53;;;;;;;22.93;3.90;;;;;;;9.94;100.00;102488.38;5072260;28;20486;-67
2021/03/15 05:57:35;;;;;;;20.80;3.58;;;;;;;9.94;100.00;102487.53;5072955;28;20036;-67
2021/03/15 06:00:16;;;;;;;23.05;3.75;;;;;;;9.94;100.00;102488.38;5072957;28;20119;-66
2021/03/15 06:03:09;;;;;;;24.30;3.63;;;;;;;9.95;100.00;102484.59;5072547;28;20033;-67
2021/03/15 06:05:43;;;;;;;22.20;3.40;;;;;;;9.95;100.00;102483.75;5072666;28;20474;-65
2021/03/15 06:08:20;;;;;;;17.50;3.88;;;;;;;9.94;100.00;102482.91;5072713;28;20032;-73
2021/03/15 06:11:12;;;;;;;17.10;3.55;;;;;;;9.94;100.00;102488.38;5072573;28;20123;-69
2021/03/15 06:13:40;;;;;;;21.70;3.40;;;;;;;9.94;100.00;102487.53;5047623;28;20051;-68
2021/03/15 06:16:08;;;;;;;22.85;3.88;;;;;;;9.94;100.00;102485.63;5052532;28;20049;-65
2021/03/15 06:18:34;;;;;;;24.83;4.10;;;;;;;9.94;100.00;102485.63;5052437;28;20075;-68
2021/03/15 06:21:00;;;;;;;17.45;3.40;;;;;;;9.96;100.00;102485.44;5051097;28;20522;-66
2021/03/15 06:23:27;;;;;;;30.10;5.13;;;;;;;9.97;100.00;102487.97;5052086;28;20604;-65
2021/03/15 06:25:54;;;;;;;21.33;4.38;;;;;;;9.96;100.00;102491.75;5052305;28;20098;-70
2021/03/15 06:28:21;;;;;;;20.25;4.18;;;;;;;9.97;100.00;102492.59;5052306;28;20080;-67
2021/03/15 06:30:50;;;;;;;25.20;3.95;;;;;;;9.96;100.00;102502.66;5052300;28;20033;-67
2021/03/15 06:33:17;;;;;;;19.52;3.63;;;;;;;9.96;100.00;102505.41;5052213;28;20037;-68
2021/03/15 06:35:59;;;;;;;22.23;3.75;;;;;;;9.96;100.00;102508.13;5051942;28;20403;-67
2021/03/15 06:38:27;;;;;;;25.63;3.47;;;;;;;9.96;100.00;102519.03;5052047;28;20048;-67
2021/03/15 06:40:53;;;;;;;18.35;3.63;;;;;;;9.96;100.00;102527.22;5052081;28;20124;-65
2021/03/15 06:43:20;;;;;;;21.15;3.88;;;;;;;9.96;100.00;102527.22;5051854;28;20120;-68
2021/03/15 06:45:49;;;;;;;23.52;3.67;;;;;;;9.96;100.00;102524.50;5051927;28;20033;-66
2021/03/15 06:48:15;;;;;;;24.60;3.75;;;;;;;9.97;100.00;102530.81;5052019;28;20036;-70
2021/03/15 06:50:41;;;;;;;20.40;4.97;;;;;;;9.95;100.00;102533.72;5051910;28;20136;-68
2021/03/15 06:53:07;;;;;;;24.23;4.97;;;;;;;9.96;100.00;102538.16;5051604;28;20033;-67
2021/03/15 06:55:35;;;;;;;19.05;3.92;;;;;;;9.96;100.00;102540.88;5051729;28;20044;-66
2021/03/15 06:58:22;;;;;;;20.08;3.28;;;;;;;9.96;100.00;102546.34;5051646;28;20367;-69
2021/03/15 07:01:08;;;;;;;19.55;3.22;;;;;;;9.96;100.00;102546.34;5051637;28;20132;-66
2021/03/15 07:03:35;;;;;;;17.80;3.25;;;;;;;9.95;100.00;102544.66;5051088;28;20045;-69
2021/03/15 07:06:01;;;;;;;21.02;4.07;;;;;;;9.96;100.00;102540.88;5051437;28;20064;-69
2021/03/15 07:08:27;;;;;;;22.58;3.25;;;;;;;9.96;100.00;102551.81;5051450;28;20037;-67
2021/03/15 07:10:56;;;;;;;21.42;4.35;;;;;;;9.95;100.00;102550.13;5051333;28;20034;-69
2021/03/15 07:13:32;;;;;;;21.40;3.58;;;;;;;9.96;100.00;102550.97;5055246;28;20037;-68
2021/03/15 07:15:58;;;;;;;23.77;3.17;;;;;;;9.96;100.00;102562.72;5071370;28;20032;-68
2021/03/15 07:18:26;;;;;;;14.98;3.22;;;;;;;9.98;100.00;102560.63;5071472;28;20044;-68
2021/03/15 07:20:54;;;;;;;22.17;4.88;;;;;;;10.01;100.00;102564.00;5071221;28;20032;-70
2021/03/15 07:23:39;;;;;;;20.17;3.67;;;;;;;10.01;100.00;102566.75;5071010;28;20162;-66
2021/03/15 07:26:17;;;;;;;18.77;3.78;;;;;;;10.03;100.00;102573.69;5071073;28;20037;-69
2021/03/15 07:28:44;;;;;;;26.55;4.13;;;;;;;10.06;100.00;102577.91;5071220;28;20035;-67
2021/03/15 07:31:30;;;;;;;30.65;4.53;;;;;;;10.06;100.00;102580.63;5071011;28;20090;-66
2021/03/15 07:33:56;;;;;;;21.50;3.35;;;;;;;10.06;100.00;102581.47;5071021;28;20475;-67
2021/03/15 07:36:29;;;;;;;18.67;3.15;;;;;;;10.08;100.00;102592.22;5070950;28;20067;-64
2021/03/15 07:38:56;;;;;;;18.13;3.40;;;;;;;10.10;100.00;102599.19;5070995;28;20036;-65
2021/03/15 07:41:23;;;;;;;24.00;4.00;;;;;;;10.14;100.00;102602.34;5070838;28;20044;-68
2021/03/15 07:43:50;;;;;;;23.08;3.80;;;;;;;10.18;100.00;102603.66;5070899;28;20037;-68
2021/03/15 07:46:25;;;;;;;20.30;2.95;;;;;;;10.24;100.00;102608.38;5070849;28;20033;-67
2021/03/15 07:48:51;;;;;;;22.02;3.97;;;;;;;10.27;100.00;102602.50;5070850;28;20036;-68
2021/03/15 07:51:30;;;;;;;22.85;3.92;;;;;;;10.29;100.00;102605.88;5070900;28;20044;-68
2021/03/15 07:54:10;;;;;;;19.85;3.35;;;;;;;10.32;100.00;102607.38;5070734;28;20123;-69
2021/03/15 07:56:36;;;;;;;29.83;3.75;;;;;;;10.32;100.00;102610.09;5070680;28;20032;-67
2021/03/15 07:59:02;;;;;;;21.70;3.15;;;;;;;10.30;100.00;102618.50;5070672;28;20050;-66
2021/03/15 08:01:28;;;;;;;29.92;4.47;;;;;;;10.30;100.00;102613.03;5071201;28;20064;-71
2021/03/15 08:03:54;;;;;;;12.10;2.03;;;;;;;10.28;100.00;102617.84;5070514;28;20072;-67
2021/03/15 08:06:21;;;;;;;25.80;3.90;;;;;;;10.33;100.00;102623.56;5070821;28;20060;-65
2021/03/15 08:08:48;;;;;;;27.00;4.07;;;;;;;10.36;100.00;102622.31;5052701;28;20033;-66
2021/03/15 08:11:16;;;;;;;31.70;3.92;;;;;;;10.37;100.00;102618.53;5070577;28;20090;-68
2021/03/15 08:13:54;;;;;;;26.70;3.75;;;;;;;10.38;100.00;102626.53;5070221;28;20056;-68
2021/03/15 08:16:22;;;;;;;18.05;3.97;;;;;;;10.39;100.00;102620.03;5071636;28;20063;-68
2021/03/15 08:18:49;;;;;;;31.45;3.53;;;;;;;10.40;100.00;102618.16;5074714;28;20051;-67
2021/03/15 08:21:24;;;;;;;25.33;4.10;;;;;;;10.41;100.00;102620.72;5074436;28;20036;-71
2021/03/15 08:23:50;;;;;;;19.10;3.50;;;;;;;10.47;100.00;102619.91;5074488;28;20060;-65
2021/03/15 08:26:16;;;;;;;22.52;4.30;;;;;;;10.53;100.00;102627.31;5074494;28;20040;-70
2021/03/15 08:28:43;;;;;;;39.25;5.70;;;;;;;10.60;100.00;102629.25;5074357;28;20036;-66
2021/03/15 08:31:22;;;;;;;12.38;3.03;;;;;;;10.67;100.00;102632.88;5074491;28;20490;-69
2021/03/15 08:33:49;;;;;;;24.38;3.58;;;;;;;10.73;100.00;102635.66;5074438;28;20036;-65
2021/03/15 08:36:16;;;;;;;17.65;4.22;;;;;;;10.79;100.00;102640.34;5074218;28;20087;-71
2021/03/15 08:38:43;;;;;;;21.30;3.30;;;;;;;10.86;100.00;102640.38;5074455;28;20051;-64
2021/03/15 08:41:10;;;;;;;21.42;3.65;;;;;;;10.91;100.00;102643.34;5074183;28;20399;-69
2021/03/15 08:43:47;;;;;;;26.50;5.97;;;;;;;11.00;100.00;102644.88;5074278;28;20045;-69
2021/03/15 08:46:34;;;;;;;22.73;3.80;;;;;;;11.08;100.00;102650.16;5074087;28;20028;-68
2021/03/15 08:49:08;;;;;;;25.10;4.18;;;;;;;11.14;100.00;102638.44;5074021;28;20086;-66
2021/03/15 08:51:34;;;;;;;66.93;11.65;;;;;;;11.19;100.00;102635.09;5074042;28;20043;-66
2021/03/15 08:54:01;;;;;;;17.73;3.17;;;;;;;11.22;100.00;102651.09;5073975;28;20406;-71
2021/03/15 08:56:27;;;;;;;23.70;3.97;;;;;;;11.27;100.00;102653.22;5073824;28;20110;-69
2021/03/15 08:58:54;;;;;;;33.20;5.90;;;;;;;11.26;100.00;102648.78;5073924;28;20082;-67
2021/03/15 09:01:24;;;;;;;19.85;3.40;;;;;;;11.29;100.00;102662.09;5073789;28;20492;-67
2021/03/15 09:03:51;;;;;;;14.23;3.03;;;;;;;11.34;100.00;102667.78;5073655;28;20032;-69
2021/03/15 09:09:05;;;;;;;67.57;9.27;;;;;;;11.41;100.00;102671.41;5073723;28;20036;-65
2021/03/15 09:11:37;;;;;;;16.63;3.03;;;;;;;11.43;100.00;102669.28;5073706;28;20071;-69
2021/03/15 09:14:18;;;;;;;19.95;4.07;;;;;;;11.46;100.00;102677.13;5073313;28;20051;-67
2021/03/15 09:16:49;;;;;;;39.83;6.75;;;;;;;11.45;100.00;102680.88;5073738;28;20036;-69
2021/03/15 09:19:39;;;;;;;64.47;11.52;;;;;;;11.50;100.00;102686.63;5073732;28;20060;-68
2021/03/15 09:22:19;;;;;;;17.50;3.50;;;;;;;11.50;100.00;102689.34;5073434;28;20039;-64
2021/03/15 09:24:44;;;;;;;24.92;3.55;;;;;;;11.51;100.00;102682.81;5073891;28;20047;-68
2021/03/15 09:27:23;;;;;;;38.63;7.53;;;;;;;11.56;100.00;102690.41;5072979;28;20066;-67
2021/03/15 09:30:03;;;;;;;23.77;5.13;;;;;;;11.60;100.00;102692.53;5073678;28;20044;-66
2021/03/15 09:32:49;;;;;;;21.05;2.88;;;;;;;11.64;100.00;102685.63;5073284;28;20692;-67
2021/03/15 09:35:26;;;;;;;19.95;3.17;;;;;;;11.65;100.00;102681.00;5071957;28;20095;-65
2021/03/15 09:38:07;;;;;;;18.83;3.00;;;;;;;11.66;100.00;102689.00;5072150;28;20470;-68
2021/03/15 09:40:35;;;;;;;13.27;2.30;;;;;;;11.67;100.00;102685.22;5073009;28;20032;-68
2021/03/15 09:43:01;;;;;;;41.13;7.07;;;;;;;11.70;100.00;102693.00;5071791;28;20045;-67
2021/03/15 09:45:36;;;;;;;21.17;3.63;;;;;;;11.74;100.00;102693.44;5054942;28;20438;-67
2021/03/15 09:48:15;;;;;;;28.23;3.85;;;;;;;11.88;100.00;102697.09;5072900;28;20040;-68
2021/03/15 09:50:46;;;;;;;16.15;2.90;;;;;;;12.01;100.00;102694.41;5070811;28;20104;-66
2021/03/15 09:53:13;;;;;;;10.48;2.33;;;;;;;12.05;100.00;102698.44;5048257;28;20029;-66
2021/03/15 09:55:39;;;;;;;34.80;4.15;;;;;;;12.09;100.00;102688.75;5052773;28;20032;-69
2021/03/15 09:58:10;;;;;;;14.63;2.63;;;;;;;12.08;100.00;102692.53;5070971;28;20041;-68
2021/03/15 10:00:37;;;;;;;13.18;2.50;;;;;;;12.12;100.00;102685.56;5072655;28;20139;-68
2021/03/15 10:03:03;;;;;;;13.45;1.85;;;;;;;12.13;100.00;102679.03;5072410;28;20037;-68
2021/03/15 10:05:29;;;;;;;16.15;2.38;;;;;;;12.22;100.00;102677.81;5072730;28;20133;-67
2021/03/15 10:07:55;;;;;;;12.20;2.28;;;;;;;12.29;100.00;102680.56;5071769;28;20065;-68
2021/03/15 10:10:24;;;;;;;20.02;2.13;;;;;;;12.28;100.00;102676.97;5071972;28;20040;-68
2021/03/15 10:13:01;;;;;;;10.23;1.98;;;;;;;12.38;100.00;102685.63;5072233;28;20505;-68
2021/03/15 10:15:27;;;;;;;29.80;3.20;;;;;;;12.44;100.00;102678.47;5071877;28;20029;-67
2021/03/15 10:17:54;;;;;;;39.47;4.03;;;;;;;12.49;100.00;102686.03;5071919;28;20158;-66
2021/03/15 10:20:25;;;;;;;12.90;2.38;;;;;;;12.49;100.00;102688.78;5071559;28;20154;-66
2021/03/15 10:22:50;;;;;;;48.88;4.13;;;;;;;12.55;100.00;102685.22;5070512;28;20510;-66
2021/03/15 10:25:17;;;;;;;13.35;2.33;;;;;;;12.60;100.00;102682.69;5052886;28;20119;-67
2021/03/15 10:27:55;;;;;;;14.82;2.35;;;;;;;12.72;100.00;102686.50;5070989;28;20028;-64
2021/03/15 10:30:26;;;;;;;27.63;2.55;;;;;;;12.69;100.00;102686.91;5070200;28;20037;-64
2021/03/15 10:32:52;;;;;;;12.30;2.45;;;;;;;12.76;100.00;102690.50;5071840;28;20036;-66
2021/03/15 10:35:19;;;;;;;6.85;1.35;;;;;;;12.79;100.00;102690.06;5071565;28;20043;-65
2021/03/15 10:37:50;;;;;;;9.20;2.05;;;;;;;12.79;100.00;102690.06;5071030;28;20032;-67
2021/03/15 10:40:18;;;;;;;14.73;2.85;;;;;;;12.76;100.00;102685.00;5070973;28;20101;-66
2021/03/15 10:42:45;;;;;;;15.85;2.88;;;;;;;12.75;100.00;102691.56;5071532;28;20467;-66
2021/03/15 10:45:13;;;;;;;8.30;1.77;;;;;;;12.70;100.00;102688.59;5072051;28;20044;-67
2021/03/15 10:47:40;;;;;;;20.85;2.78;;;;;;;12.74;100.00;102700.84;5071703;28;20037;-67
2021/03/15 10:50:29;;;;;;;26.88;4.55;;;;;;;12.72;100.00;102680.16;5071638;28;20039;-66
2021/03/15 10:52:56;;;;;;;21.10;2.22;;;;;;;12.74;100.00;102683.53;5071661;28;20513;-67
2021/03/15 10:55:32;;;;;;;59.15;4.88;;;;;;;12.73;100.00;102687.34;5071351;28;20059;-68
2021/03/15 10:58:12;;;;;;;9.55;2.30;;;;;;;13.02;100.00;102688.81;5051655;28;20056;-65
2021/03/15 11:00:41;;;;;;;6.88;1.30;;;;;;;13.14;100.00;102695.31;5051664;28;20033;-67
2021/03/15 11:03:09;;;;;;;7.63;1.33;;;;;;;13.16;100.00;102687.69;5055536;28;20036;-65
2021/03/15 11:05:35;;;;;;;6.93;1.40;;;;;;;13.18;100.00;102696.59;5071610;28;20036;-66
2021/03/15 11:08:01;;;;;;;6.82;1.15;;;;;;;13.14;100.00;102689.81;5053406;28;20048;-66
2021/03/15 11:10:30;;;;;;;9.95;1.75;;;;;;;13.29;100.00;102701.44;5071322;28;20056;-66
2021/03/15 11:12:58;;;;;;;9.32;1.70;;;;;;;13.23;100.00;102688.56;5071034;28;20032;-65
2021/03/15 11:15:29;;;;;;;11.38;1.73;;;;;;;13.19;100.00;102698.28;5071208;28;20060;-66
2021/03/15 11:18:01;;;;;;;6.53;1.15;;;;;;;13.18;100.00;102713.03;5071105;28;20406;-66
2021/03/15 11:20:35;;;;;;;26.85;2.45;;;;;;;13.52;100.00;102693.53;5071200;28;20037;-66
2021/03/15 11:23:01;;;;;;;7.05;1.65;;;;;;;13.70;100.00;102701.06;5070908;28;20468;-66
2021/03/15 11:25:29;;;;;;;10.75;2.42;;;;;;;13.77;100.00;102692.81;5053030;28;20120;-66
2021/03/15 11:28:05;;;;;;;12.25;1.83;;;;;;;13.73;100.00;102692.41;5070870;28;20032;-66
2021/03/15 11:30:31;;;;;;;10.25;1.88;;;;;;;14.21;100.00;102680.94;5071162;28;20042;-66
2021/03/15 11:32:59;;;;;;;46.28;4.53;;;;;;;14.36;100.00;102680.63;5070881;28;20036;-66
2021/03/15 11:35:25;;;;;;;19.92;2.15;;;;;;;14.14;100.00;102688.38;5070994;28;20399;-66
2021/03/15 11:37:51;;;;;;;24.80;4.18;;;;;;;14.23;100.00;102691.69;5070771;28;20139;-67
2021/03/15 11:40:32;;;;;;;35.72;4.88;;;;;;;14.42;100.00;102688.84;5070920;28;20032;-66